Minnetonka, MN

9:05 PM CDT on August 28, 2014 (GMT -0500)
KMNMINNE7 | Change Station
CLOSE
Current Station
Personal Weather Station
Location: Minnetonka, MN
Elevation: 1000 ft
Nearby Weather Stations

Elev 1000 ft 44.92 °N, 93.47 °W | Updated 9 minutes ago

Overcast
Overcast
67.3 °F
Feels Like 67.3 °F
N
2.0
Wind Variable Wind from ESE
Gusts 7.0 mph

Today
High -- | Low -- °F
--% Chance of Precip.
Yesterday
High -- | Low -- °F
Precip. -- in
6:31 AM 7:57 PM
Waxing Crescent, 11% visible
Pressure 29.91 in
Visibility 10.0 miles
Clouds Overcast 1100 ft
Dew Point 65 °F
Humidity 92%
Rainfall -999.00 in
Snow Depth Not available.
UV 0 out of 12
Pollen 6.40 out of 12
Ozone Good
PM2.5 Good
Flu Activity Not available.
METAR KFCM 290153Z 11009KT 10SM OVC011 19/18 A2991 RMK AO2 SLP126 T01940178

More Conditions Fewer Conditions

Pressure 29.91 in
Visibility 10.0 miles
Clouds Overcast 1100 ft
Dew Point 65 °F
Humidity 92%
Rainfall -999.00 in
Snow Depth Not available.
UV 0 out of 12
Pollen 6.40 out of 12
Ozone Good
PM2.5 Good
Flu Activity Not available.
METAR KFCM 290153Z 11009KT 10SM OVC011 19/18 A2991 RMK AO2 SLP126 T01940178

More Conditions Fewer Conditions

10-Day Weather Forecast

Almanac

Astronomy

Aug. 28, 2014 Rise Set
Actual Time 6:31 AM CDT 7:57 PM CDT
Civil Twilight 6:00 AM CDT 8:28 PM CDT
Nautical Twilight 5:23 AM CDT 9:05 PM CDT
Astronomical Twilight 4:43 AM CDT 9:44 PM CDT
Moon 9:33 AM CDT (8/28) 9:11 PM CDT (8/28)
Length of Visible Light 14h 27m
Length of Day
13h 26m
Tomorrow will be 2m 59s shorter.
Waxing Crescent, 11% of the Moon is Illuminated
Today
Waxing Crescent
Sep 2
First Quarter
Sep 8
Full
Sep 15
Last Quarter
Sep 24
New

Today's Extremes

State Highs State Lows

Community

WunderPhotos

Upload Photos

1,748,124 photos uploaded!

Nearby

Air Quality

  Air Quality AQ Index Pollutant
Yesterday Good
OZONE
Yesterday Good
PM2.5
Current Good
PM2.5
Current Good
OZONE
Thursday Good
OZONE
Thursday Good
PM2.5
Friday Good
OZONE
Friday Good
PM2.5
Saturday Good
OZONE
Saturday Good
PM2.5
Sunday Moderate
PM2.5
Sunday Good
OZONE
Monday Good
OZONE
Monday Good
PM2.5
Tuesday Good
OZONE
Tuesday Good
PM2.5

Snow Depth

Station Depth Elevation
No new snow has been reported.

Earthquake Activity

City Distance Mag. Time & Date
No recent earthquake activity has been reported nearby.
Minimum magnitude displayed is 2.5.

Coastal Water Temperatures

Place Temperature
No Stations Reporting

Nearby Weather Stations